Time;durP1;ratioP1;P1;durP2;ratioP2;P2;SDS_P1;SDS_P2;PMS_P1;PMS_P2;Temp;Humidity;BMP_temperature;BMP_pressure;BME280_temperature;BME280_humidity;BME280_pressure;Samples;Min_cycle;Max_cycle;Signal;HPM_P1;HPM_P2
2023/07/19 00:00:41;;;;;;;1.85;1.30;;;23.20;79.00;;;;;;5082976;27;45731;-63
2023/07/19 00:03:08;;;;;;;2.47;1.40;;;23.20;78.60;;;;;;5081410;27;45237;-63
2023/07/19 00:05:35;;;;;;;1.88;1.20;;;23.20;78.70;;;;;;5081531;28;45252;-63
2023/07/19 00:08:02;;;;;;;1.95;1.27;;;23.20;78.70;;;;;;5081989;28;46603;-63
2023/07/19 00:10:29;;;;;;;1.50;0.90;;;23.20;79.10;;;;;;5081757;27;45156;-64
2023/07/19 00:12:55;;;;;;;1.70;1.13;;;23.10;78.50;;;;;;5086142;28;45135;-64
2023/07/19 00:15:22;;;;;;;2.55;1.30;;;23.20;78.60;;;;;;5086105;28;45169;-64
2023/07/19 00:17:51;;;;;;;2.42;1.23;;;23.10;78.50;;;;;;5094233;27;45171;-64
2023/07/19 00:20:18;;;;;;;1.52;1.08;;;23.20;78.40;;;;;;5085776;28;45130;-64
2023/07/19 00:22:46;;;;;;;1.42;1.10;;;23.10;78.10;;;;;;5076335;28;45199;-64
2023/07/19 00:25:13;;;;;;;2.15;1.10;;;23.10;78.30;;;;;;5078307;27;45226;-64
2023/07/19 00:27:39;;;;;;;2.25;1.23;;;23.10;78.40;;;;;;5088965;27;49149;-63
2023/07/19 00:30:07;;;;;;;1.60;1.05;;;23.10;78.70;;;;;;5087154;27;45200;-63
2023/07/19 00:32:34;;;;;;;4.00;1.02;;;23.10;78.60;;;;;;5086101;27;45162;-64
2023/07/19 00:35:02;;;;;;;2.70;1.15;;;23.10;79.00;;;;;;5085798;28;45133;-63
2023/07/19 00:37:29;;;;;;;2.88;1.30;;;23.10;78.90;;;;;;5071751;27;45390;-64
2023/07/19 00:39:56;;;;;;;1.77;1.10;;;23.10;78.70;;;;;;5085144;28;45377;-63
2023/07/19 00:42:23;;;;;;;2.00;1.20;;;23.10;78.90;;;;;;5085332;27;45198;-63
2023/07/19 00:44:49;;;;;;;1.30;1.10;;;23.10;78.60;;;;;;5085143;28;45333;-64
2023/07/19 00:47:17;;;;;;;1.50;1.05;;;23.10;78.80;;;;;;5085409;28;45162;-63
2023/07/19 00:49:44;;;;;;;1.25;1.08;;;23.10;78.50;;;;;;5086056;27;45155;-64
2023/07/19 00:52:13;;;;;;;3.60;1.30;;;23.10;78.40;;;;;;5090848;27;45302;-63
2023/07/19 00:54:40;;;;;;;1.52;1.15;;;23.10;78.10;;;;;;5085294;27;45272;-64
2023/07/19 00:57:08;;;;;;;2.67;1.25;;;23.10;77.80;;;;;;5084644;28;48282;-63
2023/07/19 00:59:35;;;;;;;1.55;1.10;;;23.10;77.60;;;;;;5083773;28;45369;-64
2023/07/19 01:02:02;;;;;;;2.00;1.20;;;23.10;77.50;;;;;;5084955;28;45237;-64
2023/07/19 01:04:30;;;;;;;2.40;1.30;;;23.10;77.30;;;;;;5085155;28;45190;-64
2023/07/19 01:06:56;;;;;;;2.20;1.30;;;23.10;77.20;;;;;;5087387;27;45287;-63
2023/07/19 01:09:27;;;;;;;1.35;1.10;;;23.10;77.20;;;;;;5088439;27;45278;-64
2023/07/19 01:11:54;;;;;;;2.38;1.40;;;23.00;77.10;;;;;;5077296;28;45154;-63
2023/07/19 01:14:21;;;;;;;3.88;1.23;;;23.10;77.10;;;;;;5084757;28;45581;-63
2023/07/19 01:16:47;;;;;;;2.08;1.13;;;23.10;77.10;;;;;;5077830;28;47644;-64
2023/07/19 01:19:16;;;;;;;1.67;1.08;;;23.10;77.00;;;;;;5084476;28;45751;-64
2023/07/19 01:21:42;;;;;;;2.08;1.17;;;23.10;77.00;;;;;;5084227;27;45144;-63
2023/07/19 01:24:11;;;;;;;2.00;1.20;;;23.10;76.90;;;;;;5085934;27;45387;-64
2023/07/19 01:26:38;;;;;;;2.40;1.33;;;23.10;76.80;;;;;;5084652;28;45350;-64
2023/07/19 01:29:05;;;;;;;1.70;1.10;;;23.10;76.60;;;;;;5085567;28;45895;-64
2023/07/19 01:31:32;;;;;;;2.60;1.20;;;23.00;77.50;;;;;;5076184;27;45091;-64
2023/07/19 01:33:58;;;;;;;2.45;1.27;;;23.00;76.60;;;;;;5085124;28;45052;-63
2023/07/19 01:36:26;;;;;;;2.15;1.17;;;23.00;76.60;;;;;;5076007;27;47422;-63
2023/07/19 01:38:52;;;;;;;3.05;1.30;;;23.00;76.60;;;;;;5084727;28;45418;-63
2023/07/19 01:41:21;;;;;;;1.95;1.20;;;23.00;76.60;;;;;;5084844;27;45223;-63
2023/07/19 01:43:47;;;;;;;1.70;1.20;;;23.00;76.60;;;;;;5076100;28;45300;-64
2023/07/19 01:46:14;;;;;;;1.80;1.13;;;23.00;76.40;;;;;;5084227;28;45323;-64
2023/07/19 01:48:41;;;;;;;1.90;1.15;;;23.00;76.60;;;;;;5083987;28;45450;-64
2023/07/19 01:51:08;;;;;;;1.83;1.10;;;23.00;76.50;;;;;;5091816;27;45261;-64
2023/07/19 01:53:34;;;;;;;1.70;1.27;;;23.00;76.60;;;;;;5083700;28;45382;-63
2023/07/19 01:56:01;;;;;;;1.25;1.10;;;23.00;76.50;;;;;;5083982;28;46327;-63
2023/07/19 01:58:29;;;;;;;1.75;1.17;;;23.00;76.80;;;;;;5090420;27;45206;-63
2023/07/19 02:00:56;;;;;;;2.67;0.90;;;23.00;76.90;;;;;;5075899;28;45323;-64
2023/07/19 02:03:23;;;;;;;2.65;1.45;;;23.00;76.80;;;;;;5084223;28;45313;-63
2023/07/19 02:05:57;;;;;;;2.53;1.33;;;23.00;76.80;;;;;;5083139;28;47068;-63
2023/07/19 02:08:24;;;;;;;2.45;1.05;;;23.00;77.70;;;;;;5082423;27;45168;-64
2023/07/19 02:10:51;;;;;;;1.80;1.25;;;23.00;76.60;;;;;;5083637;28;45287;-63
2023/07/19 02:13:17;;;;;;;1.80;1.30;;;23.00;76.50;;;;;;5076474;27;45277;-63
2023/07/19 02:15:47;;;;;;;3.50;1.20;;;23.00;76.50;;;;;;5083027;27;45312;-63
2023/07/19 02:18:14;;;;;;;2.67;1.38;;;23.00;76.40;;;;;;5083584;28;45193;-64
2023/07/19 02:20:45;;;;;;;2.17;1.10;;;23.00;76.30;;;;;;5084293;28;45087;-65
2023/07/19 02:23:12;;;;;;;2.03;1.15;;;23.00;76.30;;;;;;5084612;27;45175;-64
2023/07/19 02:25:41;;;;;;;2.58;0.95;;;23.00;76.30;;;;;;5085223;27;45437;-63
2023/07/19 02:28:08;;;;;;;2.10;1.15;;;23.00;76.20;;;;;;5083591;28;45225;-63
2023/07/19 02:30:35;;;;;;;2.00;1.20;;;23.00;76.20;;;;;;5083322;28;45267;-63
2023/07/19 02:33:03;;;;;;;3.45;1.23;;;23.00;76.20;;;;;;5084246;27;45224;-63
2023/07/19 02:35:30;;;;;;;1.98;1.38;;;23.10;76.30;;;;;;5082259;27;46076;-64
2023/07/19 02:37:57;;;;;;;2.83;1.20;;;23.00;76.10;;;;;;5083405;28;45335;-63
2023/07/19 02:40:23;;;;;;;2.28;1.27;;;23.00;76.10;;;;;;5082598;28;45169;-64
2023/07/19 02:42:50;;;;;;;1.52;1.00;;;23.00;76.30;;;;;;5083624;28;45328;-63
2023/07/19 02:45:17;;;;;;;1.95;1.00;;;23.00;76.30;;;;;;5083435;28;45380;-64
2023/07/19 02:47:43;;;;;;;1.42;0.93;;;23.00;76.30;;;;;;5083336;28;45193;-63
2023/07/19 02:50:12;;;;;;;2.80;1.25;;;23.00;76.10;;;;;;5090636;27;45421;-64
2023/07/19 02:52:39;;;;;;;2.47;1.40;;;23.00;76.10;;;;;;5083607;28;45232;-64
2023/07/19 02:55:06;;;;;;;2.85;1.45;;;23.00;76.10;;;;;;5083249;28;46722;-64
2023/07/19 02:57:33;;;;;;;2.75;1.20;;;23.00;76.20;;;;;;5083232;27;45092;-64
2023/07/19 02:59:59;;;;;;;3.20;1.10;;;23.00;76.20;;;;;;5076925;27;45137;-64
2023/07/19 03:02:26;;;;;;;2.13;1.20;;;23.00;76.20;;;;;;5083175;27;45282;-64
2023/07/19 03:04:53;;;;;;;2.45;1.30;;;23.00;76.20;;;;;;5082944;28;46568;-65
2023/07/19 03:07:21;;;;;;;1.83;1.30;;;23.00;76.20;;;;;;5089506;27;45247;-64
2023/07/19 03:09:48;;;;;;;3.33;1.58;;;23.00;76.10;;;;;;5081747;28;45133;-64
2023/07/19 03:12:15;;;;;;;3.15;1.40;;;23.00;75.90;;;;;;5081975;28;45115;-64
2023/07/19 03:14:41;;;;;;;3.20;1.27;;;23.00;75.70;;;;;;5075075;28;45232;-64
2023/07/19 03:17:08;;;;;;;3.67;1.85;;;23.00;75.50;;;;;;5080797;28;45161;-64
2023/07/19 03:19:36;;;;;;;2.80;1.40;;;23.00;75.30;;;;;;5081116;28;45133;-64
2023/07/19 03:22:03;;;;;;;4.20;1.30;;;23.00;75.20;;;;;;5083322;28;45137;-63
2023/07/19 03:24:31;;;;;;;3.22;1.40;;;23.00;75.10;;;;;;5087881;27;46354;-64
2023/07/19 03:26:58;;;;;;;2.92;1.45;;;23.00;74.90;;;;;;5082698;28;45224;-64
2023/07/19 03:29:25;;;;;;;3.28;1.40;;;23.00;75.00;;;;;;5082834;28;45152;-64
2023/07/19 03:31:52;;;;;;;3.08;1.27;;;23.00;74.90;;;;;;5081621;28;45181;-64
2023/07/19 03:34:18;;;;;;;2.28;1.30;;;23.00;74.90;;;;;;5082965;28;47005;-63
2023/07/19 03:36:45;;;;;;;1.85;0.95;;;23.00;74.80;;;;;;5073914;28;45701;-64
2023/07/19 03:39:12;;;;;;;5.00;1.30;;;23.00;74.90;;;;;;5083182;28;45134;-64
2023/07/19 03:41:40;;;;;;;7.18;1.70;;;23.00;74.70;;;;;;5082689;27;45147;-63
2023/07/19 03:44:07;;;;;;;3.08;1.15;;;23.00;75.70;;;;;;5082626;28;46400;-63
2023/07/19 03:46:34;;;;;;;2.53;1.50;;;23.00;74.60;;;;;;5081892;28;45255;-65
2023/07/19 03:49:00;;;;;;;3.92;1.30;;;23.00;74.70;;;;;;5081851;27;45288;-64
2023/07/19 03:51:27;;;;;;;1.77;1.10;;;23.00;74.90;;;;;;5078080;28;45290;-64
2023/07/19 03:53:54;;;;;;;3.42;1.40;;;23.00;74.90;;;;;;5081925;28;45440;-63
2023/07/19 03:56:21;;;;;;;1.60;1.13;;;23.00;75.00;;;;;;5082780;28;45103;-63
2023/07/19 03:58:49;;;;;;;1.77;1.10;;;23.00;75.00;;;;;;5089802;27;45236;-65
2023/07/19 04:01:16;;;;;;;4.07;1.33;;;23.00;75.00;;;;;;5081694;28;45216;-64
2023/07/19 04:03:43;;;;;;;6.43;1.50;;;23.00;75.00;;;;;;5088762;27;46577;-64
2023/07/19 04:06:10;;;;;;;2.47;1.15;;;23.00;75.00;;;;;;5076227;28;45363;-65
2023/07/19 04:08:37;;;;;;;1.50;1.10;;;23.00;75.00;;;;;;5081934;28;45145;-64
2023/07/19 04:11:03;;;;;;;2.50;1.50;;;23.00;74.90;;;;;;5081567;28;45415;-64
2023/07/19 04:13:30;;;;;;;3.22;1.20;;;23.00;74.90;;;;;;5081248;28;47906;-64
2023/07/19 04:15:58;;;;;;;1.75;1.10;;;23.00;75.00;;;;;;5088730;27;45391;-64
2023/07/19 04:18:26;;;;;;;2.85;1.50;;;23.00;74.90;;;;;;5081821;28;45308;-64
2023/07/19 04:20:57;;;;;;;2.35;1.33;;;23.00;74.90;;;;;;5080083;28;45319;-64
2023/07/19 04:23:24;;;;;;;3.25;1.30;;;23.00;74.80;;;;;;5081681;27;45318;-63
2023/07/19 04:25:51;;;;;;;1.92;1.20;;;23.00;74.70;;;;;;5080950;27;45407;-63
2023/07/19 04:28:19;;;;;;;3.95;1.48;;;23.00;74.80;;;;;;5086906;27;45207;-64
2023/07/19 04:30:46;;;;;;;3.03;1.30;;;23.00;74.80;;;;;;5081251;27;45245;-64
2023/07/19 04:33:15;;;;;;;2.03;1.17;;;23.00;74.90;;;;;;5087370;27;46285;-64
2023/07/19 04:35:42;;;;;;;2.40;1.30;;;23.00;74.70;;;;;;5073446;28;45158;-64
2023/07/19 04:38:09;;;;;;;2.53;1.20;;;23.00;74.80;;;;;;5081688;28;45239;-64
2023/07/19 04:40:36;;;;;;;5.88;1.63;;;22.90;74.00;;;;;;5072356;28;45665;-64
2023/07/19 04:43:02;;;;;;;2.63;1.35;;;22.90;71.80;;;;;;5076320;27;45337;-64
2023/07/19 04:45:30;;;;;;;3.60;1.52;;;22.90;71.50;;;;;;5079006;28;45383;-64
2023/07/19 04:47:57;;;;;;;2.17;1.15;;;22.90;71.20;;;;;;5083309;27;45339;-64
2023/07/19 04:50:25;;;;;;;3.13;1.50;;;22.90;69.90;;;;;;5079307;28;45417;-64
2023/07/19 04:52:53;;;;;;;2.47;1.23;;;22.90;69.80;;;;;;5091028;27;46222;-64
2023/07/19 04:55:20;;;;;;;4.57;1.40;;;22.90;70.00;;;;;;5081544;28;45129;-64
2023/07/19 04:57:47;;;;;;;3.00;1.40;;;22.90;70.00;;;;;;5092743;27;45120;-62
2023/07/19 05:00:15;;;;;;;1.38;1.10;;;22.90;70.90;;;;;;5084672;28;45149;-64
2023/07/19 05:02:42;;;;;;;3.15;1.15;;;22.90;71.10;;;;;;5092681;27;48065;-64
2023/07/19 05:05:12;;;;;;;3.00;1.27;;;22.90;71.70;;;;;;5089342;27;45216;-65
2023/07/19 05:07:40;;;;;;;2.38;1.45;;;23.00;72.10;;;;;;5087351;27;45265;-65
2023/07/19 05:10:08;;;;;;;2.88;1.20;;;23.00;72.40;;;;;;5087469;27;45424;-64
2023/07/19 05:12:35;;;;;;;3.22;1.10;;;23.00;72.60;;;;;;5084563;27;46623;-65
2023/07/19 05:15:02;;;;;;;2.90;1.60;;;23.00;72.90;;;;;;5088418;27;45192;-65
2023/07/19 05:17:29;;;;;;;3.85;1.60;;;23.00;73.10;;;;;;5086859;27;45315;-65
2023/07/19 05:19:55;;;;;;;2.45;1.25;;;23.00;73.20;;;;;;5082202;28;45215;-65
2023/07/19 05:22:22;;;;;;;4.05;1.35;;;23.00;73.20;;;;;;5082755;27;47039;-64
2023/07/19 05:24:50;;;;;;;4.22;1.52;;;23.00;73.40;;;;;;5082027;27;45215;-64
2023/07/19 05:27:17;;;;;;;1.75;1.20;;;23.00;73.50;;;;;;5082944;28;45401;-64
2023/07/19 05:29:44;;;;;;;5.45;1.52;;;23.00;73.60;;;;;;5083192;28;45348;-64
2023/07/19 05:32:11;;;;;;;2.58;1.50;;;23.10;73.80;;;;;;5083335;27;47658;-64
2023/07/19 05:34:37;;;;;;;2.85;1.48;;;23.00;73.60;;;;;;5084468;27;45727;-64
2023/07/19 05:37:06;;;;;;;2.70;1.38;;;23.10;74.00;;;;;;5083666;28;45175;-64
2023/07/19 05:39:33;;;;;;;1.58;1.05;;;23.10;74.00;;;;;;5084135;27;45155;-64
2023/07/19 05:42:01;;;;;;;2.22;1.08;;;23.10;74.00;;;;;;5084507;28;47467;-64
2023/07/19 05:44:28;;;;;;;1.80;1.13;;;23.10;74.10;;;;;;5084552;28;45222;-64
2023/07/19 05:46:55;;;;;;;2.90;1.60;;;23.10;74.20;;;;;;5076375;28;45156;-63
2023/07/19 05:49:22;;;;;;;2.90;1.48;;;23.10;74.30;;;;;;5082533;28;45293;-63
2023/07/19 05:51:50;;;;;;;2.85;1.40;;;23.10;74.40;;;;;;5084463;28;45281;-64
2023/07/19 05:54:16;;;;;;;3.72;1.33;;;23.10;74.60;;;;;;5085453;27;46606;-64
2023/07/19 05:56:43;;;;;;;3.42;1.45;;;23.10;74.60;;;;;;5080525;27;45236;-64
2023/07/19 05:59:12;;;;;;;4.07;1.30;;;23.10;74.60;;;;;;5079810;28;45245;-64
2023/07/19 06:01:38;;;;;;;3.67;1.35;;;23.10;74.70;;;;;;5083523;27;45460;-64
2023/07/19 06:04:06;;;;;;;2.88;1.13;;;23.10;74.80;;;;;;5084304;28;45212;-64
2023/07/19 06:06:34;;;;;;;4.70;1.30;;;23.10;74.90;;;;;;5091858;27;45415;-65
2023/07/19 06:09:05;;;;;;;2.85;1.33;;;23.10;75.10;;;;;;5076894;27;45337;-64
2023/07/19 06:11:32;;;;;;;2.53;1.20;;;23.10;75.20;;;;;;5078849;27;46455;-64
2023/07/19 06:13:59;;;;;;;3.55;1.40;;;23.10;75.20;;;;;;5082443;27;45208;-65
2023/07/19 06:16:27;;;;;;;2.95;1.23;;;23.10;75.30;;;;;;5083196;27;45179;-64
2023/07/19 06:18:54;;;;;;;2.75;1.48;;;23.10;75.40;;;;;;5083745;28;45522;-64
2023/07/19 06:21:21;;;;;;;3.80;1.40;;;23.10;75.40;;;;;;5082983;28;47217;-65
2023/07/19 06:23:47;;;;;;;3.70;1.30;;;23.10;75.50;;;;;;5076223;27;45169;-66
2023/07/19 06:26:14;;;;;;;1.90;1.25;;;23.10;75.70;;;;;;5073264;27;45224;-64
2023/07/19 06:28:41;;;;;;;2.53;1.23;;;23.10;75.70;;;;;;5080290;27;45046;-65
2023/07/19 06:31:08;;;;;;;2.15;1.10;;;23.10;75.90;;;;;;5081828;27;45200;-65
2023/07/19 06:33:36;;;;;;;3.92;1.33;;;23.10;75.90;;;;;;5079338;27;45362;-64
2023/07/19 06:36:03;;;;;;;2.67;1.35;;;23.10;75.90;;;;;;5086106;27;45165;-64
2023/07/19 06:38:29;;;;;;;4.40;1.30;;;23.10;76.00;;;;;;5084850;27;45210;-65
2023/07/19 06:41:02;;;;;;;3.55;1.50;;;23.10;76.00;;;;;;5076068;27;46452;-64
2023/07/19 06:43:28;;;;;;;3.63;1.50;;;23.10;76.70;;;;;;5076487;27;45145;-64
2023/07/19 06:45:55;;;;;;;3.15;1.23;;;23.10;76.10;;;;;;5083511;27;45426;-64
2023/07/19 06:48:23;;;;;;;1.88;1.33;;;23.10;76.10;;;;;;5080463;27;45425;-65
2023/07/19 06:50:51;;;;;;;2.88;1.67;;;23.10;76.30;;;;;;5086385;27;46050;-63
2023/07/19 06:53:18;;;;;;;3.33;1.50;;;23.10;76.20;;;;;;5083267;28;45235;-63
2023/07/19 06:55:44;;;;;;;2.40;1.38;;;23.10;76.20;;;;;;5082359;28;45193;-65
2023/07/19 06:58:11;;;;;;;3.95;1.70;;;23.20;76.30;;;;;;5082588;28;45166;-64
2023/07/19 07:00:38;;;;;;;3.55;1.65;;;23.10;76.30;;;;;;5082307;28;48011;-63
2023/07/19 07:03:05;;;;;;;4.22;1.83;;;23.20;76.40;;;;;;5083546;28;45287;-64
2023/07/19 07:05:33;;;;;;;2.70;1.33;;;23.20;76.20;;;;;;5082584;27;45347;-63
2023/07/19 07:08:01;;;;;;;3.35;1.50;;;23.20;76.40;;;;;;5082553;28;45483;-63
2023/07/19 07:10:28;;;;;;;4.57;1.58;;;23.20;76.40;;;;;;5077925;28;45381;-63
2023/07/19 07:12:55;;;;;;;3.90;1.70;;;23.20;76.40;;;;;;5076971;27;45379;-65
2023/07/19 07:15:21;;;;;;;2.13;1.40;;;23.20;76.50;;;;;;5089276;27;45153;-65
2023/07/19 07:17:48;;;;;;;2.50;1.60;;;23.20;76.60;;;;;;5073038;28;45228;-64
2023/07/19 07:20:15;;;;;;;2.65;1.50;;;23.20;76.60;;;;;;5089192;27;48244;-64
2023/07/19 07:22:42;;;;;;;2.38;1.58;;;23.20;76.60;;;;;;5082471;27;45232;-64
2023/07/19 07:25:10;;;;;;;3.38;1.98;;;23.20;76.90;;;;;;5081191;28;45323;-64
2023/07/19 07:27:37;;;;;;;3.40;2.00;;;23.20;77.00;;;;;;5081354;27;45315;-64
2023/07/19 07:30:04;;;;;;;3.58;1.98;;;23.20;77.10;;;;;;5073927;28;47369;-63
2023/07/19 07:32:31;;;;;;;2.15;1.48;;;23.20;77.30;;;;;;5082027;28;45317;-63
2023/07/19 07:34:58;;;;;;;3.75;1.75;;;23.20;77.50;;;;;;5083717;27;45154;-64
2023/07/19 07:37:25;;;;;;;2.78;1.40;;;23.20;77.60;;;;;;5090411;27;45218;-64
2023/07/19 07:39:52;;;;;;;2.15;1.60;;;23.20;77.70;;;;;;5076914;27;47295;-63
2023/07/19 07:42:21;;;;;;;2.70;2.00;;;23.20;78.00;;;;;;5081094;28;45241;-63
2023/07/19 07:44:47;;;;;;;3.17;1.70;;;23.20;78.20;;;;;;5082517;27;45333;-63
2023/07/19 07:47:14;;;;;;;4.43;1.88;;;23.20;78.40;;;;;;5089049;27;45428;-64
2023/07/19 07:49:41;;;;;;;3.25;1.60;;;23.20;78.50;;;;;;5078063;27;45394;-63
2023/07/19 07:52:11;;;;;;;2.17;1.55;;;23.20;78.70;;;;;;5086945;27;45169;-64
2023/07/19 07:54:38;;;;;;;3.75;1.58;;;23.20;78.80;;;;;;5085928;27;45133;-64
2023/07/19 07:57:05;;;;;;;2.65;1.30;;;23.20;78.80;;;;;;5082762;28;45326;-64
2023/07/19 07:59:33;;;;;;;5.93;1.65;;;23.20;78.90;;;;;;5078309;27;47524;-65
2023/07/19 08:02:00;;;;;;;4.45;1.60;;;23.20;78.90;;;;;;5073179;27;45666;-65
2023/07/19 08:04:27;;;;;;;2.28;1.23;;;23.10;78.90;;;;;;5082610;28;45208;-64
2023/07/19 08:06:54;;;;;;;2.75;1.55;;;23.20;79.20;;;;;;5080772;27;45392;-64
2023/07/19 08:09:21;;;;;;;3.63;2.00;;;23.10;79.40;;;;;;5081446;28;45441;-64
2023/07/19 08:11:48;;;;;;;2.05;1.40;;;23.10;79.30;;;;;;5079798;27;45214;-64
2023/07/19 08:14:15;;;;;;;4.95;2.03;;;23.10;79.40;;;;;;5080895;28;45321;-64
2023/07/19 08:16:43;;;;;;;4.63;1.95;;;23.10;79.50;;;;;;5083167;27;45291;-64
2023/07/19 08:19:10;;;;;;;3.55;1.55;;;23.10;79.60;;;;;;5089719;27;46536;-65
2023/07/19 08:21:36;;;;;;;2.58;1.70;;;23.20;79.60;;;;;;5081598;27;45273;-64
2023/07/19 08:24:04;;;;;;;2.05;1.25;;;23.20;79.50;;;;;;5080346;28;45284;-64
2023/07/19 08:26:30;;;;;;;4.15;1.70;;;23.20;79.60;;;;;;5078599;28;45140;-64
2023/07/19 08:28:58;;;;;;;4.35;1.50;;;23.20;79.50;;;;;;5083259;27;48314;-64
2023/07/19 08:31:24;;;;;;;3.08;1.40;;;23.20;79.50;;;;;;5082047;27;45155;-64
2023/07/19 08:33:53;;;;;;;2.28;1.50;;;23.20;79.50;;;;;;5094997;27;45114;-64
2023/07/19 08:36:20;;;;;;;1.83;1.30;;;23.20;79.60;;;;;;5091527;27;45157;-63
2023/07/19 08:38:48;;;;;;;2.85;1.10;;;23.20;79.60;;;;;;5075809;27;46388;-64
2023/07/19 08:41:21;;;;;;;2.85;1.52;;;23.20;79.60;;;;;;5085140;28;45207;-64
2023/07/19 08:43:48;;;;;;;3.92;1.75;;;23.20;79.70;;;;;;5083457;28;45253;-64
2023/07/19 08:46:16;;;;;;;4.53;1.50;;;23.20;79.70;;;;;;5091143;27;45216;-63
2023/07/19 08:48:48;;;;;;;4.13;1.80;;;23.20;79.80;;;;;;5086250;27;45324;-64
2023/07/19 08:51:16;;;;;;;2.53;1.40;;;23.20;79.90;;;;;;5081912;27;45338;-64
2023/07/19 08:53:44;;;;;;;2.13;1.42;;;23.20;80.00;;;;;;5077777;27;45198;-64
2023/07/19 08:56:11;;;;;;;2.50;1.60;;;23.20;80.00;;;;;;5099608;27;45355;-64
2023/07/19 08:58:39;;;;;;;3.45;1.60;;;23.20;80.00;;;;;;5082931;27;46732;-64
2023/07/19 09:01:06;;;;;;;4.32;1.90;;;23.20;80.00;;;;;;5075202;28;45239;-64
2023/07/19 09:03:34;;;;;;;2.88;1.25;;;23.20;80.00;;;;;;5084231;27;45342;-64
2023/07/19 09:06:01;;;;;;;2.92;1.30;;;23.20;80.00;;;;;;5081086;28;45268;-63
2023/07/19 09:08:36;;;;;;;2.60;1.52;;;23.20;80.10;;;;;;5076552;28;47344;-63
2023/07/19 09:11:03;;;;;;;1.65;1.00;;;23.20;80.30;;;;;;5083973;27;45869;-63
2023/07/19 09:13:32;;;;;;;2.97;1.40;;;23.20;80.30;;;;;;5078769;28;45257;-63
2023/07/19 09:15:59;;;;;;;1.25;1.00;;;23.20;80.40;;;;;;5081578;28;45239;-65
2023/07/19 09:18:29;;;;;;;1.95;1.10;;;23.20;80.50;;;;;;5075382;27;47465;-64
2023/07/19 09:20:58;;;;;;;2.75;1.65;;;23.20;80.50;;;;;;5094243;27;45122;-63
2023/07/19 09:23:26;;;;;;;1.90;1.10;;;23.20;80.80;;;;;;5087070;27;45201;-64
2023/07/19 09:25:55;;;;;;;3.75;1.20;;;23.20;80.70;;;;;;5078461;27;45326;-64
2023/07/19 09:28:23;;;;;;;1.73;1.13;;;23.20;80.90;;;;;;5091087;27;47659;-63
2023/07/19 09:30:59;;;;;;;2.70;1.73;;;23.20;81.00;;;;;;5085287;27;45217;-63
2023/07/19 09:33:26;;;;;;;3.33;1.48;;;23.20;80.90;;;;;;5084422;28;45305;-64
2023/07/19 09:35:55;;;;;;;2.58;1.30;;;23.20;81.00;;;;;;5075970;27;45380;-64
2023/07/19 09:38:22;;;;;;;2.85;1.15;;;23.20;81.00;;;;;;5084711;27;47308;-64
2023/07/19 09:40:50;;;;;;;1.90;1.23;;;23.20;80.80;;;;;;5088456;27;45367;-64
2023/07/19 09:43:19;;;;;;;1.67;1.10;;;23.20;80.70;;;;;;5086801;27;45264;-63
2023/07/19 09:45:48;;;;;;;1.83;1.10;;;23.20;80.60;;;;;;5084048;28;45183;-65
2023/07/19 09:48:16;;;;;;;2.85;1.33;;;23.20;80.40;;;;;;5082884;28;46084;-63
2023/07/19 09:50:43;;;;;;;2.15;1.15;;;23.20;80.30;;;;;;5083674;27;45122;-63
2023/07/19 09:53:12;;;;;;;1.70;1.20;;;23.20;80.20;;;;;;5068925;28;45205;-64
2023/07/19 09:55:39;;;;;;;2.00;1.10;;;23.20;80.10;;;;;;5077394;27;45324;-64
2023/07/19 09:58:09;;;;;;;2.00;1.00;;;23.20;80.00;;;;;;5070320;28;46355;-63
2023/07/19 10:00:39;;;;;;;1.83;1.10;;;23.20;80.70;;;;;;5080303;27;45216;-64
2023/07/19 10:03:08;;;;;;;1.70;1.00;;;23.20;80.50;;;;;;5079398;28;45232;-65
2023/07/19 10:05:36;;;;;;;3.00;0.80;;;23.20;80.50;;;;;;5067183;27;45381;-64
2023/07/19 10:08:04;;;;;;;2.67;0.90;;;23.20;80.50;;;;;;5066227;27;46278;-64
2023/07/19 10:10:38;;;;;;;2.08;1.13;;;23.30;80.30;;;;;;5083813;27;45725;-66
2023/07/19 10:13:06;;;;;;;1.42;1.10;;;23.20;80.30;;;;;;5085859;28;45181;-64
2023/07/19 10:15:33;;;;;;;2.55;1.20;;;23.20;80.30;;;;;;5083297;28;45435;-64
2023/07/19 10:18:02;;;;;;;1.48;0.85;;;23.20;80.20;;;;;;5083911;28;45177;-64
2023/07/19 10:20:32;;;;;;;1.40;1.00;;;23.20;80.20;;;;;;5081558;27;45346;-64
2023/07/19 10:23:02;;;;;;;2.22;1.20;;;23.20;80.30;;;;;;5083927;27;45225;-65
2023/07/19 10:25:32;;;;;;;2.83;1.17;;;23.20;80.30;;;;;;5082204;28;45281;-64
2023/07/19 10:28:01;;;;;;;1.25;0.82;;;23.20;79.80;;;;;;5084274;27;46179;-64
2023/07/19 10:30:50;;;;;;;2.25;1.15;;;23.20;79.50;;;;;;5083222;28;45309;-64
2023/07/19 10:33:20;;;;;;;1.08;0.80;;;23.20;79.40;;;;;;5075674;28;45188;-64
2023/07/19 10:35:49;;;;;;;1.88;1.20;;;23.20;79.20;;;;;;5083602;28;45128;-64
2023/07/19 10:38:18;;;;;;;2.75;0.90;;;23.20;79.00;;;;;;5085163;27;47906;-64
2023/07/19 10:40:46;;;;;;;1.92;1.05;;;23.20;78.90;;;;;;5082804;28;45134;-64
2023/07/19 10:43:14;;;;;;;2.17;1.02;;;23.20;78.70;;;;;;5083548;28;45203;-63
2023/07/19 10:45:41;;;;;;;1.08;0.80;;;23.20;78.70;;;;;;5083495;27;45448;-65
2023/07/19 10:48:09;;;;;;;1.95;0.82;;;23.20;78.60;;;;;;5083295;28;47592;-64
2023/07/19 10:50:38;;;;;;;2.33;1.10;;;23.30;78.60;;;;;;5074853;27;45141;-65
2023/07/19 10:53:05;;;;;;;1.80;1.00;;;23.30;78.70;;;;;;5074933;27;45246;-64
2023/07/19 10:55:32;;;;;;;1.30;0.88;;;23.30;78.60;;;;;;5081509;27;45328;-64
2023/07/19 10:57:58;;;;;;;1.02;0.77;;;23.30;78.70;;;;;;5079310;27;46534;-64
2023/07/19 11:00:25;;;;;;;1.80;1.08;;;23.30;78.60;;;;;;5083527;27;45445;-64
2023/07/19 11:02:53;;;;;;;2.33;1.02;;;23.20;78.50;;;;;;5070564;27;45460;-65
2023/07/19 11:05:20;;;;;;;3.40;1.08;;;23.30;79.10;;;;;;5082640;27;45155;-65
2023/07/19 11:07:51;;;;;;;1.10;0.90;;;23.20;79.40;;;;;;5078499;28;45262;-65
2023/07/19 11:10:19;;;;;;;2.30;0.77;;;23.20;79.30;;;;;;5080317;28;45182;-65
2023/07/19 11:12:46;;;;;;;2.50;1.00;;;23.20;79.60;;;;;;5075649;28;45249;-64
2023/07/19 11:15:13;;;;;;;1.88;0.98;;;23.30;79.60;;;;;;5079243;27;45067;-64
2023/07/19 11:17:39;;;;;;;1.33;0.70;;;23.20;79.30;;;;;;5073602;27;46612;-64
2023/07/19 11:20:10;;;;;;;2.03;1.38;;;23.20;79.40;;;;;;5085315;27;45597;-66
2023/07/19 11:22:37;;;;;;;1.55;0.85;;;23.30;79.40;;;;;;5078665;27;45240;-64
2023/07/19 11:25:14;;;;;;;1.10;1.00;;;23.30;79.30;;;;;;5075870;28;45185;-64
2023/07/19 11:27:41;;;;;;;1.50;1.10;;;23.20;79.00;;;;;;5078050;27;45407;-65
2023/07/19 11:30:08;;;;;;;1.00;0.85;;;23.30;78.90;;;;;;5076948;27;45366;-65
2023/07/19 11:32:35;;;;;;;2.55;1.00;;;23.30;78.80;;;;;;5084355;27;45300;-65
2023/07/19 11:35:02;;;;;;;1.63;0.88;;;23.30;78.60;;;;;;5072206;27;45316;-65
2023/07/19 11:37:30;;;;;;;2.80;0.85;;;23.30;78.60;;;;;;5079707;27;46825;-64
2023/07/19 11:39:58;;;;;;;1.92;0.95;;;23.30;78.40;;;;;;5076917;28;45129;-64
2023/07/19 11:42:44;;;;;;;1.58;1.00;;;23.30;78.20;;;;;;5069006;27;45364;-64
2023/07/19 11:45:13;;;;;;;2.38;1.15;;;23.30;78.50;;;;;;5073454;27;45411;-65
2023/07/19 11:47:41;;;;;;;0.93;0.82;;;23.30;78.40;;;;;;5073576;27;46987;-65
2023/07/19 11:50:09;;;;;;;1.02;0.80;;;23.30;78.50;;;;;;5080182;28;45290;-64
2023/07/19 11:52:44;;;;;;;1.88;0.90;;;23.30;78.30;;;;;;5082196;27;45225;-64
2023/07/19 11:55:11;;;;;;;0.77;0.70;;;23.30;78.40;;;;;;5078385;27;45450;-64
2023/07/19 11:57:38;;;;;;;2.80;0.93;;;23.30;78.40;;;;;;5094542;27;47333;-64
2023/07/19 12:00:08;;;;;;;1.25;0.90;;;23.30;78.30;;;;;;5080067;27;45428;-64
2023/07/19 12:02:35;;;;;;;0.80;0.70;;;23.30;78.10;;;;;;5081279;28;45283;-64
2023/07/19 12:05:03;;;;;;;0.90;0.80;;;23.30;78.20;;;;;;5082542;28;45548;-64
2023/07/19 12:07:30;;;;;;;1.73;0.82;;;23.30;78.10;;;;;;5083983;27;45267;-64
2023/07/19 12:09:56;;;;;;;4.07;1.10;;;23.30;78.10;;;;;;5085921;27;45215;-63
2023/07/19 12:12:23;;;;;;;2.00;1.00;;;23.30;79.10;;;;;;5086063;28;45133;-64
2023/07/19 12:14:50;;;;;;;1.73;0.90;;;23.30;78.20;;;;;;5104735;27;45343;-64
2023/07/19 12:17:18;;;;;;;1.98;0.70;;;23.30;78.20;;;;;;5087615;27;46531;-64
2023/07/19 12:19:45;;;;;;;1.55;0.88;;;23.30;78.00;;;;;;5093544;27;45107;-64
2023/07/19 12:22:12;;;;;;;1.25;0.90;;;23.30;77.80;;;;;;5069613;27;45456;-64
2023/07/19 12:24:38;;;;;;;1.25;0.90;;;23.30;78.00;;;;;;5075968;27;45263;-64
2023/07/19 12:27:06;;;;;;;2.05;1.00;;;23.30;77.80;;;;;;5081452;27;46583;-64
2023/07/19 12:29:32;;;;;;;1.63;0.88;;;23.30;78.10;;;;;;5077661;27;45286;-65
2023/07/19 12:31:59;;;;;;;1.48;0.88;;;23.30;77.90;;;;;;5082175;27;45233;-65
2023/07/19 12:34:28;;;;;;;2.67;0.60;;;23.30;77.50;;;;;;5076830;27;45214;-64
2023/07/19 12:36:55;;;;;;;2.65;0.77;;;23.30;77.30;;;;;;5070071;27;46271;-64
2023/07/19 12:39:24;;;;;;;1.63;0.90;;;23.30;77.70;;;;;;5076725;27;45319;-64
2023/07/19 12:41:52;;;;;;;1.42;0.68;;;23.30;77.30;;;;;;5080515;27;45300;-64
2023/07/19 12:44:19;;;;;;;1.23;0.70;;;23.30;77.00;;;;;;5083714;27;45414;-64
2023/07/19 12:46:48;;;;;;;1.88;0.80;;;23.30;76.70;;;;;;5072254;27;46500;-65
2023/07/19 12:49:15;;;;;;;1.92;0.70;;;23.30;76.50;;;;;;5068669;27;45390;-64